Summit, Wisconsin
Current Conditions -  °F | °C
As of 5:15 PM on Wednesday 17 Dec 2014 (Local Time) from KRRL Reporting Station
Overcast Overcast  
Wind Chill: 14°   Ceiling: 2100
Heat Index: 21°   Visibility: 10mi
Dew Point: 15°   Wind: 6mph
Humidity: 77%   Direction: 320°NW
Pressure: 30.21"   Gusts: NA
Location:  45.3595°N, 89.45°W
Report Text: KRRL 172315Z AUTO 32005KT 10SM OVC021 M06/M09 A3021 RMK AO2 T10601095
Loading
Personal Weather Stations






























Interactive Weather Map New forecast layout! Learn more

10-Day Weather Forecast

Advertisements
Track Severe Weather on mobile